createdAt,value
2019-05-05T00:00:30.240Z,55901.03
2019-05-05T00:03:14.650Z,55964.78
2019-05-05T00:05:44.460Z,55937.01
2019-05-05T00:08:15.407Z,55942.16
2019-05-05T00:11:10.590Z,55927.76
2019-05-05T00:14:05.149Z,55910.28
2019-05-05T00:16:44.364Z,55918.50
2019-05-05T00:19:19.129Z,55910.28
2019-05-05T00:21:45.983Z,55958.61
2019-05-05T00:24:16.506Z,55941.13
2019-05-05T00:26:47.057Z,55928.79
2019-05-05T00:29:16.921Z,55909.25
2019-05-05T00:31:47.020Z,55902.05
2019-05-05T00:34:16.926Z,55898.97
2019-05-05T00:36:47.191Z,55907.20
2019-05-05T00:39:17.189Z,55911.31
2019-05-05T00:41:47.747Z,55924.68
2019-05-05T00:44:17.984Z,55925.70
2019-05-05T00:47:06.741Z,55948.32
2019-05-05T00:49:46.483Z,55939.07
2019-05-05T00:52:10.672Z,55911.31
2019-05-05T00:54:40.589Z,55924.68
2019-05-05T00:57:11.212Z,55924.68
2019-05-05T00:59:41.969Z,55906.17
2019-05-05T01:02:30.500Z,55898.97
2019-05-05T01:05:19.345Z,55880.46
2019-05-05T01:07:49.951Z,55902.05
2019-05-05T01:10:20.186Z,55877.38
2019-05-05T01:12:50.109Z,55896.91
2019-05-05T01:15:20.159Z,55917.48
2019-05-05T01:17:50.637Z,55917.48
2019-05-05T01:20:20.626Z,55891.77
2019-05-05T01:22:51.172Z,55870.18
2019-05-05T01:25:21.401Z,55912.34
2019-05-05T01:27:51.732Z,55870.18
2019-05-05T01:30:25.868Z,55914.39
2019-05-05T01:33:01.078Z,55917.48
2019-05-05T01:35:30.967Z,55934.96
2019-05-05T01:38:14.234Z,55895.89
2019-05-05T01:40:56.162Z,55944.21
2019-05-05T01:43:27.153Z,55928.79
2019-05-05T01:45:57.692Z,55910.28
2019-05-05T01:48:27.600Z,55901.03
2019-05-05T01:50:57.865Z,55931.87
2019-05-05T01:53:28.536Z,55911.31
2019-05-05T01:55:59.853Z,55877.38
2019-05-05T01:58:29.795Z,55886.63
2019-05-05T02:01:00.733Z,55888.69
2019-05-05T02:03:31.316Z,55927.76
2019-05-05T02:06:01.858Z,55905.14
2019-05-05T02:08:32.190Z,55885.61
2019-05-05T02:11:05.077Z,55853.73
2019-05-05T02:13:34.759Z,55878.41
2019-05-05T02:16:05.111Z,55895.89
2019-05-05T02:18:35.005Z,55898.97
2019-05-05T02:21:08.346Z,55907.20
2019-05-05T02:23:39.102Z,55921.59
2019-05-05T02:26:10.333Z,55918.50
2019-05-05T02:28:59.195Z,55849.62
2019-05-05T02:31:57.930Z,55902.05
2019-05-05T02:34:30.865Z,55913.36
2019-05-05T02:37:01.152Z,55928.79
2019-05-05T02:39:34.255Z,55895.89
2019-05-05T02:42:05.799Z,55901.03
2019-05-05T02:44:36.402Z,55898.97
2019-05-05T02:47:37.009Z,55888.69
2019-05-05T02:50:09.534Z,55909.25
2019-05-05T02:52:44.171Z,55901.03
2019-05-05T02:55:14.785Z,55874.29
2019-05-05T02:57:45.468Z,55921.59
2019-05-05T03:00:34.448Z,55893.83
2019-05-05T03:03:05.544Z,55886.63
2019-05-05T03:05:36.700Z,55888.69
2019-05-05T03:08:07.208Z,55913.36
2019-05-05T03:10:37.446Z,55892.80
2019-05-05T03:13:08.776Z,55889.72
2019-05-05T03:15:55.014Z,55898.97
2019-05-05T03:18:25.710Z,55927.76
2019-05-05T03:21:04.396Z,55901.03
2019-05-05T03:23:27.773Z,55893.83
2019-05-05T03:25:58.000Z,55884.57
2019-05-05T03:28:40.374Z,55917.48
2019-05-05T03:31:11.166Z,55918.50
2019-05-05T03:33:45.593Z,55901.03
2019-05-05T03:36:14.493Z,55888.69
2019-05-05T03:38:45.589Z,55894.86
2019-05-05T03:41:50.041Z,55882.52
2019-05-05T03:44:29.457Z,55922.62
2019-05-05T03:47:00.585Z,55942.16
2019-05-05T03:49:33.781Z,55906.17
2019-05-05T03:52:04.994Z,55886.63
2019-05-05T03:54:35.558Z,55907.20
2019-05-05T03:57:08.438Z,55918.50
2019-05-05T03:59:44.359Z,55883.55
2019-05-05T04:02:23.343Z,55861.95
2019-05-05T04:04:54.959Z,55900.00
2019-05-05T04:07:25.641Z,55878.41
2019-05-05T04:09:55.850Z,55918.50
2019-05-05T04:12:26.432Z,55911.31
2019-05-05T04:14:56.701Z,55917.48
2019-05-05T04:17:53.622Z,55894.86
2019-05-05T04:20:35.368Z,55925.70
2019-05-05T04:23:05.288Z,55886.63
2019-05-05T04:25:35.290Z,55880.46
2019-05-05T04:28:05.467Z,55900.00
2019-05-05T04:30:35.397Z,55912.34
2019-05-05T04:33:07.140Z,55898.97
2019-05-05T04:35:37.508Z,55903.08
2019-05-05T04:38:07.643Z,55888.69
2019-05-05T04:40:37.871Z,55914.39
2019-05-05T04:43:08.462Z,55935.98
2019-05-05T04:45:38.648Z,55886.63
2019-05-05T04:48:24.537Z,55904.11
2019-05-05T04:51:04.758Z,55892.80
2019-05-05T04:53:43.827Z,55915.42
2019-05-05T04:56:15.540Z,55923.65
2019-05-05T04:58:46.015Z,55915.42
2019-05-05T05:01:16.847Z,55919.54
2019-05-05T05:04:13.696Z,55913.36
2019-05-05T05:06:47.427Z,55920.56
2019-05-05T05:09:17.376Z,55913.36
2019-05-05T05:11:48.063Z,55930.84
2019-05-05T05:14:17.997Z,55911.31
2019-05-05T05:16:49.746Z,55910.28
2019-05-05T05:19:19.610Z,55947.30
2019-05-05T05:22:00.869Z,55922.62
2019-05-05T05:24:23.696Z,55921.59
2019-05-05T05:26:55.548Z,55951.41
2019-05-05T05:29:26.193Z,55915.42
2019-05-05T05:31:56.396Z,55893.83
2019-05-05T05:34:26.358Z,55952.44
2019-05-05T05:36:56.305Z,55918.50
2019-05-05T05:39:51.132Z,55933.93
2019-05-05T05:42:21.058Z,55915.42
2019-05-05T05:45:14.544Z,55923.65
2019-05-05T05:48:04.038Z,55903.08
2019-05-05T05:50:38.199Z,55895.89
2019-05-05T05:53:09.039Z,55947.30
2019-05-05T05:55:39.681Z,55921.59
2019-05-05T05:58:09.924Z,55927.76
2019-05-05T06:00:42.289Z,55938.04
2019-05-05T06:03:14.041Z,55950.38
2019-05-05T06:05:44.174Z,55904.11
2019-05-05T06:08:14.372Z,55952.44
2019-05-05T06:10:44.712Z,55947.30
2019-05-05T06:13:15.677Z,55940.10
2019-05-05T06:15:48.548Z,55929.82
2019-05-05T06:18:18.488Z,55919.54
2019-05-05T06:20:49.094Z,55878.41
2019-05-05T06:23:19.321Z,55915.42
2019-05-05T06:25:49.341Z,55981.23
2019-05-05T06:28:20.169Z,56000.76
2019-05-05T06:30:50.991Z,56040.86
2019-05-05T06:33:20.980Z,56040.86
2019-05-05T06:35:50.930Z,56053.20
2019-05-05T06:38:20.906Z,56064.51
2019-05-05T06:41:05.607Z,56002.82
2019-05-05T06:44:10.209Z,55999.73
2019-05-05T06:47:01.792Z,56024.41
2019-05-05T06:49:32.084Z,56035.72
2019-05-05T06:52:04.168Z,56027.50
2019-05-05T06:54:34.795Z,56048.06
2019-05-05T06:57:05.420Z,56040.86
2019-05-05T06:59:36.001Z,56033.67
2019-05-05T07:02:06.012Z,56044.98
2019-05-05T07:04:36.598Z,56054.23
2019-05-05T07:07:07.197Z,56059.37
2019-05-05T07:09:38.242Z,56044.98
2019-05-05T07:12:08.480Z,56055.26
2019-05-05T07:14:38.986Z,56040.86
2019-05-05T07:17:09.300Z,55995.62
2019-05-05T07:19:39.859Z,56037.78
2019-05-05T07:22:10.493Z,56063.48
2019-05-05T07:24:40.714Z,56046.00
2019-05-05T07:27:11.123Z,56016.19
2019-05-05T07:29:43.651Z,56065.54
2019-05-05T07:36:25.009Z,56044.98
2019-05-05T07:38:55.728Z,56067.60
2019-05-05T07:41:25.747Z,56044.98
2019-05-05T07:43:57.644Z,56055.26
2019-05-05T07:46:28.055Z,56042.92
2019-05-05T07:48:58.310Z,56030.58
2019-05-05T07:51:28.606Z,56076.85
2019-05-05T07:53:59.357Z,56036.75
2019-05-05T07:56:29.401Z,56032.64
2019-05-05T07:59:00.028Z,56042.92
2019-05-05T08:01:30.629Z,56024.41
2019-05-05T08:04:00.955Z,56024.41
2019-05-05T08:06:33.762Z,56049.09
2019-05-05T08:09:05.733Z,56031.61
2019-05-05T08:11:36.189Z,56028.52
2019-05-05T08:14:06.568Z,56061.43
2019-05-05T08:16:47.235Z,56005.90
2019-05-05T08:19:43.867Z,56032.64
2019-05-05T08:22:15.286Z,56018.24
2019-05-05T08:25:05.087Z,56025.44
2019-05-05T08:27:45.626Z,56050.12
2019-05-05T08:30:24.302Z,56071.71
2019-05-05T08:32:55.208Z,56010.02
2019-05-05T08:35:25.413Z,56036.75
2019-05-05T08:37:55.345Z,56002.82
2019-05-05T08:40:26.506Z,56019.27
2019-05-05T08:42:56.498Z,56033.67
2019-05-05T08:45:26.846Z,56020.30
2019-05-05T08:47:56.944Z,56020.30
2019-05-05T08:50:27.925Z,56040.86
2019-05-05T08:52:57.848Z,56080.96
2019-05-05T08:55:28.470Z,56003.85
2019-05-05T08:57:59.048Z,56005.90
2019-05-05T09:00:29.059Z,56000.76
2019-05-05T09:02:59.120Z,56024.41
2019-05-05T09:05:29.421Z,56006.93
2019-05-05T09:07:59.744Z,56011.05
2019-05-05T09:10:29.641Z,55995.62
2019-05-05T09:12:59.728Z,55991.51
2019-05-05T09:15:29.985Z,55941.13
2019-05-05T09:18:00.167Z,55930.84
2019-05-05T09:20:30.734Z,55944.21
2019-05-05T09:23:01.034Z,55924.68
2019-05-05T09:25:44.736Z,55944.21
2019-05-05T09:28:40.290Z,55931.87
2019-05-05T09:31:11.077Z,55965.80
2019-05-05T09:33:41.618Z,55952.44
2019-05-05T09:36:13.810Z,55930.84
2019-05-05T09:38:45.018Z,55910.28
2019-05-05T09:41:15.649Z,55964.78
2019-05-05T09:43:45.522Z,55982.25
2019-05-05T09:46:16.068Z,56041.89
2019-05-05T09:48:46.192Z,56104.62
2019-05-05T09:51:16.830Z,56097.42
2019-05-05T09:53:47.745Z,56098.45
2019-05-05T09:56:17.729Z,56026.47
2019-05-05T09:58:47.647Z,55960.66
2019-05-05T10:01:17.911Z,55952.44
2019-05-05T10:03:48.141Z,55968.89
2019-05-05T10:06:18.101Z,55976.09
2019-05-05T10:08:48.649Z,55966.83
2019-05-05T10:11:18.823Z,55960.66
2019-05-05T10:13:49.029Z,55944.21
2019-05-05T10:16:19.415Z,55954.49
2019-05-05T10:18:50.202Z,56038.81
2019-05-05T10:21:20.117Z,56065.54
2019-05-05T10:23:54.076Z,56038.81
2019-05-05T10:26:24.833Z,55977.11
2019-05-05T10:28:54.923Z,55952.44
2019-05-05T10:31:24.842Z,56013.10
2019-05-05T10:33:58.839Z,56005.90
2019-05-05T10:36:29.185Z,55997.68
2019-05-05T10:39:04.618Z,56084.05
2019-05-05T10:41:35.386Z,56096.39
2019-05-05T10:44:05.602Z,56072.74
2019-05-05T10:46:35.494Z,56044.98
2019-05-05T10:49:05.448Z,56071.71
2019-05-05T10:51:36.302Z,56043.95
2019-05-05T10:54:06.464Z,56087.14
2019-05-05T10:56:36.734Z,56101.53
2019-05-05T10:59:06.943Z,56053.20
2019-05-05T11:01:37.157Z,56085.08
2019-05-05T11:04:08.028Z,56072.74
2019-05-05T11:06:38.527Z,56063.48
2019-05-05T11:09:09.181Z,56063.48
2019-05-05T11:11:40.100Z,56067.60
2019-05-05T11:14:10.665Z,56042.92
2019-05-05T11:16:40.599Z,56015.16
2019-05-05T11:19:13.485Z,56027.50
2019-05-05T11:21:43.650Z,56069.65
2019-05-05T11:24:14.688Z,56059.37
2019-05-05T11:26:45.604Z,56029.55
2019-05-05T11:29:15.499Z,56064.51
2019-05-05T11:31:45.541Z,56069.65
2019-05-05T11:34:24.478Z,56036.75
2019-05-05T11:37:13.130Z,56057.32
2019-05-05T11:39:44.524Z,56053.20
2019-05-05T11:42:14.722Z,56089.19
2019-05-05T11:44:47.449Z,56036.75
2019-05-05T11:47:16.844Z,56052.18
2019-05-05T11:49:47.045Z,56049.09
2019-05-05T11:52:18.498Z,56064.51
2019-05-05T11:54:48.726Z,56056.29
2019-05-05T11:57:18.901Z,56043.95
2019-05-05T11:59:49.092Z,56052.18
2019-05-05T12:02:19.030Z,56036.75
2019-05-05T12:04:48.935Z,56069.65
2019-05-05T12:07:19.717Z,56014.13
2019-05-05T12:09:55.133Z,56037.78
2019-05-05T12:12:25.454Z,56012.07
2019-05-05T12:14:55.567Z,56006.93
2019-05-05T12:17:36.372Z,56033.67
2019-05-05T12:20:10.222Z,56020.30
2019-05-05T12:22:40.381Z,56036.75
2019-05-05T12:25:29.089Z,56032.64
2019-05-05T12:28:04.446Z,56005.90
2019-05-05T12:30:35.137Z,55994.59
2019-05-05T12:33:05.318Z,56013.10
2019-05-05T12:35:35.811Z,56033.67
2019-05-05T12:38:06.085Z,56026.47
2019-05-05T12:40:36.750Z,55989.45
2019-05-05T12:43:06.662Z,56038.81
2019-05-05T12:45:38.411Z,56007.96
2019-05-05T12:48:13.733Z,56000.76
2019-05-05T12:50:44.280Z,56051.14
2019-05-05T12:53:14.643Z,56041.89
2019-05-05T12:55:45.231Z,56059.37
2019-05-05T12:58:15.847Z,56042.92
2019-05-05T13:00:54.091Z,56057.32
2019-05-05T13:03:24.792Z,56089.19
2019-05-05T13:05:54.916Z,56077.88
2019-05-05T13:08:25.132Z,56038.81
2019-05-05T13:10:55.370Z,56029.55
2019-05-05T13:13:25.611Z,56044.98
2019-05-05T13:15:55.536Z,56040.86
2019-05-05T13:18:26.224Z,56038.81
2019-05-05T13:21:04.224Z,56038.81
2019-05-05T13:23:56.251Z,56038.81
2019-05-05T13:26:42.271Z,56033.67
2019-05-05T13:29:13.919Z,56021.33
2019-05-05T13:31:44.261Z,56035.72
2019-05-05T13:34:14.534Z,56037.78
2019-05-05T13:36:45.033Z,56017.21
2019-05-05T13:39:15.446Z,56057.32
2019-05-05T13:41:46.425Z,56051.14
2019-05-05T13:44:24.424Z,56023.38
2019-05-05T13:46:54.346Z,56046.00
2019-05-05T13:49:31.261Z,56044.98
2019-05-05T13:52:04.637Z,56064.51
2019-05-05T13:54:35.629Z,56064.51
2019-05-05T13:57:06.494Z,56061.43
2019-05-05T13:59:36.403Z,56033.67
2019-05-05T14:02:06.636Z,56074.80
2019-05-05T14:04:37.386Z,56028.52
2019-05-05T14:07:07.279Z,56049.09
2019-05-05T14:09:37.154Z,56058.34
2019-05-05T14:12:07.844Z,56032.64
2019-05-05T14:14:38.387Z,56054.23
2019-05-05T14:17:08.326Z,56030.58
2019-05-05T14:19:38.273Z,56044.98
2019-05-05T14:22:08.169Z,56027.50
2019-05-05T14:24:45.421Z,56024.41
2019-05-05T14:27:16.237Z,56036.75
2019-05-05T14:29:57.785Z,56038.81
2019-05-05T14:32:34.546Z,56063.48
2019-05-05T14:35:22.498Z,56062.46
2019-05-05T14:37:55.586Z,56038.81
2019-05-05T14:40:25.774Z,56047.03
2019-05-05T14:42:56.007Z,56055.26
2019-05-05T14:45:26.523Z,56078.91
2019-05-05T14:47:57.046Z,56019.27
2019-05-05T14:50:27.278Z,56035.72
2019-05-05T14:52:57.167Z,56049.09
2019-05-05T14:55:27.741Z,56022.36
2019-05-05T14:57:57.956Z,56025.44
2019-05-05T15:00:28.823Z,56056.29
2019-05-05T15:02:59.312Z,56014.13
2019-05-05T15:05:47.532Z,56011.05
2019-05-05T15:08:37.036Z,56018.24
2019-05-05T15:11:35.817Z,56034.70
2019-05-05T15:14:06.944Z,55993.57
2019-05-05T15:16:38.275Z,56019.27
2019-05-05T15:19:09.342Z,56051.14
2019-05-05T15:21:39.205Z,56028.52
2019-05-05T15:24:09.082Z,55998.71
2019-05-05T15:26:49.126Z,56022.36
2019-05-05T15:29:10.630Z,56014.13
2019-05-05T15:31:40.885Z,56010.02
2019-05-05T15:34:10.881Z,56001.79
2019-05-05T15:36:41.097Z,56026.47
2019-05-05T15:39:11.240Z,56065.54
2019-05-05T15:41:41.966Z,56007.96
2019-05-05T15:44:13.441Z,56029.55
2019-05-05T15:46:44.272Z,56054.23
2019-05-05T15:49:14.898Z,56034.70
2019-05-05T15:51:45.100Z,56036.75
2019-05-05T15:54:15.292Z,56054.23
2019-05-05T15:56:45.464Z,56049.09
2019-05-05T15:59:16.274Z,56024.41
2019-05-05T16:01:46.521Z,56026.47
2019-05-05T16:04:16.732Z,56038.81
2019-05-05T16:06:46.977Z,56012.07
2019-05-05T16:09:17.490Z,56055.26
2019-05-05T16:11:47.814Z,56055.26
2019-05-05T16:14:18.376Z,56024.41
2019-05-05T16:16:56.090Z,56026.47
2019-05-05T16:19:53.304Z,55998.71
2019-05-05T16:22:29.452Z,56014.13
2019-05-05T16:25:14.011Z,56051.14
2019-05-05T16:27:44.844Z,56014.13
2019-05-05T16:30:17.692Z,56024.41
2019-05-05T16:32:48.154Z,56032.64
2019-05-05T16:35:19.731Z,56050.12
2019-05-05T16:37:50.061Z,56016.19
2019-05-05T16:40:23.321Z,56024.41
2019-05-05T16:42:54.351Z,56038.81
2019-05-05T16:45:24.997Z,56032.64
2019-05-05T16:47:55.645Z,56031.61
2019-05-05T16:50:26.157Z,56050.12
2019-05-05T16:53:03.776Z,56012.07
2019-05-05T16:55:44.861Z,56018.24
2019-05-05T16:58:15.107Z,56032.64
2019-05-05T17:00:45.089Z,56050.12
2019-05-05T17:03:15.560Z,56057.32
2019-05-05T17:05:46.778Z,56015.16
2019-05-05T17:08:17.760Z,56013.10
2019-05-05T17:10:48.554Z,56036.75
2019-05-05T17:13:27.740Z,56060.40
2019-05-05T17:16:06.789Z,56023.38
2019-05-05T17:18:45.734Z,56043.95
2019-05-05T17:21:26.968Z,56007.96
2019-05-05T17:23:57.033Z,56032.64
2019-05-05T17:26:28.559Z,56034.70
2019-05-05T17:28:58.774Z,56044.98
2019-05-05T17:31:29.559Z,56007.96
2019-05-05T17:34:00.230Z,56036.75
2019-05-05T17:36:30.574Z,56027.50
2019-05-05T17:39:00.789Z,56040.86
2019-05-05T17:41:50.479Z,56034.70
2019-05-05T17:44:30.335Z,56016.19
2019-05-05T17:47:06.099Z,56082.00
2019-05-05T17:49:56.388Z,56021.33
2019-05-05T17:52:45.549Z,56046.00
2019-05-05T17:55:29.494Z,56032.64
2019-05-05T17:58:02.530Z,56030.58
2019-05-05T18:00:34.299Z,56053.20
2019-05-05T18:03:04.849Z,56044.98
2019-05-05T18:05:56.170Z,56039.84
2019-05-05T18:09:38.784Z,56053.20
2019-05-05T18:12:25.734Z,56053.20
2019-05-05T18:14:57.140Z,56059.37
2019-05-05T18:17:27.377Z,56062.46
2019-05-05T18:19:57.320Z,56024.41
2019-05-05T18:22:27.175Z,56032.64
2019-05-05T18:24:57.286Z,56047.03
2019-05-05T18:27:27.142Z,56022.36
2019-05-05T18:29:57.296Z,56048.06
2019-05-05T18:32:27.212Z,56043.95
2019-05-05T18:34:57.083Z,56055.26
2019-05-05T18:37:26.937Z,56071.71
2019-05-05T18:39:57.217Z,55960.66
2019-05-05T18:42:27.756Z,56049.09
2019-05-05T18:45:03.602Z,56026.47
2019-05-05T18:47:36.229Z,56048.06
2019-05-05T18:50:07.020Z,56057.32
2019-05-05T18:52:37.039Z,56039.84
2019-05-05T18:55:07.256Z,56033.67
2019-05-05T18:57:37.411Z,56049.09
2019-05-05T19:00:10.971Z,56054.23
2019-05-05T19:02:53.874Z,56075.82
2019-05-05T19:05:36.056Z,56033.67
2019-05-05T19:08:11.698Z,56049.09
2019-05-05T19:10:43.379Z,56035.72
2019-05-05T19:13:13.720Z,56037.78
2019-05-05T19:15:43.758Z,56010.02
2019-05-05T19:18:14.098Z,56014.13
2019-05-05T19:21:16.011Z,56021.33
2019-05-05T19:23:45.883Z,56049.09
2019-05-05T19:26:15.889Z,56051.14
2019-05-05T19:28:49.880Z,56042.92
2019-05-05T19:31:17.524Z,56032.64
2019-05-05T19:33:47.439Z,56029.55
2019-05-05T19:36:17.322Z,56037.78
2019-05-05T19:38:47.499Z,56033.67
2019-05-05T19:41:17.425Z,56043.95
2019-05-05T19:43:54.858Z,56028.52
2019-05-05T19:46:34.542Z,56047.03
2019-05-05T19:49:17.133Z,56032.64
2019-05-05T19:51:48.033Z,55997.68
2019-05-05T19:54:17.877Z,56034.70
2019-05-05T19:56:47.798Z,56050.12
2019-05-05T19:59:17.618Z,56022.36
2019-05-05T20:01:47.562Z,56017.21
2019-05-05T20:04:17.421Z,56049.09
2019-05-05T20:06:48.005Z,56020.30
2019-05-05T20:09:18.012Z,56015.16
2019-05-05T20:11:48.064Z,56051.14
2019-05-05T20:14:17.954Z,56007.96
2019-05-05T20:17:06.761Z,56016.19
2019-05-05T20:19:43.771Z,56047.03
2019-05-05T20:22:14.749Z,56028.52
2019-05-05T20:24:45.343Z,56007.96
2019-05-05T20:27:16.000Z,56043.95
2019-05-05T20:29:45.977Z,56041.89
2019-05-05T20:32:17.938Z,56020.30
2019-05-05T20:35:06.873Z,56063.48
2019-05-05T20:37:45.127Z,56038.81
2019-05-05T20:40:17.093Z,56017.21
2019-05-05T20:42:46.988Z,56054.23
2019-05-05T20:45:20.703Z,56031.61
2019-05-05T20:47:50.553Z,56038.81
2019-05-05T20:50:20.726Z,56062.46
2019-05-05T20:52:50.568Z,56055.26
2019-05-05T20:55:20.738Z,56054.23
2019-05-05T20:57:50.879Z,56027.50
2019-05-05T21:00:21.048Z,56057.32
2019-05-05T21:02:51.245Z,56042.92
2019-05-05T21:05:21.103Z,56058.34
2019-05-05T21:07:51.000Z,56050.12
2019-05-05T21:10:20.933Z,56021.33
2019-05-05T21:12:54.548Z,56020.30
2019-05-05T21:15:24.793Z,56053.20
2019-05-05T21:17:54.865Z,56068.62
2019-05-05T21:20:24.911Z,56073.77
2019-05-05T21:23:06.179Z,56028.52
2019-05-05T21:25:38.314Z,56002.82
2019-05-05T21:28:08.187Z,56023.38
2019-05-05T21:30:38.094Z,56012.07
2019-05-05T21:33:08.249Z,56034.70
2019-05-05T21:35:38.108Z,56012.07
2019-05-05T21:38:08.015Z,56041.89
2019-05-05T21:40:37.847Z,56024.41
2019-05-05T21:43:07.729Z,56031.61
2019-05-05T21:45:37.598Z,56069.65
2019-05-05T21:48:07.499Z,56035.72
2019-05-05T21:50:54.028Z,56030.58
2019-05-05T21:53:34.344Z,56039.84
2019-05-05T21:56:24.652Z,56034.70
2019-05-05T21:58:54.677Z,56016.19
2019-05-05T22:01:27.126Z,56031.61
2019-05-05T22:03:56.766Z,56066.57
2019-05-05T22:06:29.702Z,56020.30
2019-05-05T22:08:59.641Z,56021.33
2019-05-05T22:11:29.517Z,56008.99
2019-05-05T22:13:59.353Z,55989.45
2019-05-05T22:16:35.289Z,56023.38
2019-05-05T22:19:05.150Z,56037.78
2019-05-05T22:21:43.734Z,56033.67
2019-05-05T22:24:17.753Z,56041.89
2019-05-05T22:26:47.602Z,56064.51
2019-05-05T22:29:17.832Z,56044.98
2019-05-05T22:31:48.159Z,56028.52
2019-05-05T22:34:18.021Z,56061.43
2019-05-05T22:36:48.266Z,56002.82
2019-05-05T22:39:18.185Z,56011.05
2019-05-05T22:41:48.096Z,56038.81
2019-05-05T22:44:18.036Z,56026.47
2019-05-05T22:46:47.926Z,56028.52
2019-05-05T22:49:18.181Z,56036.75
2019-05-05T22:51:48.038Z,56059.37
2019-05-05T22:54:17.901Z,56027.50
2019-05-05T22:56:47.804Z,56024.41
2019-05-05T22:59:18.009Z,56021.33
2019-05-05T23:01:47.988Z,56019.27
2019-05-05T23:04:36.850Z,55994.59
2019-05-05T23:07:11.717Z,56025.44
2019-05-05T23:09:41.571Z,56046.00
2019-05-05T23:12:13.581Z,56026.47
2019-05-05T23:14:43.792Z,56005.90
2019-05-05T23:17:38.901Z,56037.78
2019-05-05T23:20:34.018Z,56061.43
2019-05-05T23:23:25.986Z,56018.24
2019-05-05T23:25:57.303Z,55999.73
2019-05-05T23:28:27.153Z,56010.02
2019-05-05T23:30:57.005Z,55982.25
2019-05-05T23:33:26.876Z,56044.98
2019-05-05T23:35:56.734Z,56029.55
2019-05-05T23:38:26.586Z,56027.50
2019-05-05T23:40:56.427Z,56012.07
2019-05-05T23:43:26.282Z,56031.61
2019-05-05T23:45:56.145Z,56004.87
2019-05-05T23:48:25.959Z,56027.50
2019-05-05T23:50:55.822Z,56006.93
2019-05-05T23:53:25.950Z,56021.33
2019-05-05T23:55:55.794Z,56026.47
2019-05-05T23:58:25.878Z,56012.07
